Terminal Aerodrome Forecast
Issued by NWS

Home | Current Version | Previous Version | Text Only | Print | Product List | Glossary On
Versions: 1 2 3 4 5 6 7 8 9 10 11 12 13 14 15 16 17 18 19 20 21 22 23 24
000
FTUS41 KGYX 300533
TAFRKD
TAF
KRKD 300533Z 3006/3106 00000KT 6SM BR SKC
     FM300700 00000KT 1/4SM FG OVC007
     FM301200 09003KT 2SM HZ SCT004 SCT250
     FM301500 12005KT P6SM SCT050 SCT250
     FM310000 19005KT 1SM -TSRA BR BKN025CB
     FM310200 23003KT 1/2SM FG OVC002
      AMD LTD TO CLD VIS AND WIND=

USA.gov is the U.S. government's official web portal to all federal, state and local government web resources and services.